createdAt,value
2023-04-07T00:01:35.568Z,8.90
2023-04-07T00:04:02.946Z,8.75
2023-04-07T00:06:30.139Z,7.53
2023-04-07T00:08:56.929Z,8.93
2023-04-07T00:11:23.747Z,8.30
2023-04-07T00:13:51.919Z,9.30
2023-04-07T00:16:19.121Z,8.98
2023-04-07T00:18:46.298Z,9.50
2023-04-07T00:21:13.162Z,8.80
2023-04-07T00:23:40.049Z,9.40
2023-04-07T00:26:06.905Z,8.45
2023-04-07T00:28:33.696Z,8.82
2023-04-07T00:31:00.760Z,8.65
2023-04-07T00:33:27.578Z,9.45
2023-04-07T00:35:54.496Z,8.70
2023-04-07T00:38:21.716Z,9.43
2023-04-07T00:40:48.583Z,8.95
2023-04-07T00:43:15.594Z,9.18
2023-04-07T00:45:42.884Z,9.05
2023-04-07T00:48:10.825Z,8.52
2023-04-07T00:50:37.641Z,9.25
2023-04-07T00:53:05.681Z,9.55
2023-04-07T00:55:32.566Z,8.82
2023-04-07T00:57:59.404Z,9.65
2023-04-07T01:00:28.033Z,9.32
2023-04-07T01:03:14.531Z,9.50
2023-04-07T01:05:41.624Z,7.40
2023-04-07T01:08:25.577Z,8.35
2023-04-07T01:10:54.509Z,8.85
2023-04-07T01:13:38.679Z,9.57
2023-04-07T01:16:11.449Z,10.02
2023-04-07T01:18:40.352Z,10.30
2023-04-07T01:21:13.982Z,9.85
2023-04-07T01:23:51.860Z,10.55
2023-04-07T01:26:33.483Z,8.38
2023-04-07T01:29:33.989Z,9.52
2023-04-07T01:32:04.293Z,10.70
2023-04-07T01:34:32.931Z,8.60
2023-04-07T01:37:02.485Z,10.55
2023-04-07T01:39:30.387Z,9.75
2023-04-07T01:41:58.184Z,8.82
2023-04-07T01:44:27.530Z,8.75
2023-04-07T01:46:55.652Z,9.77
2023-04-07T01:49:23.385Z,9.88
2023-04-07T01:51:51.422Z,10.25
2023-04-07T01:54:19.004Z,9.98
2023-04-07T01:56:46.102Z,9.10
2023-04-07T01:59:13.462Z,9.70
2023-04-07T02:01:40.793Z,9.65
2023-04-07T02:04:19.977Z,9.55
2023-04-07T02:06:59.434Z,9.52
2023-04-07T02:09:29.492Z,9.00
2023-04-07T02:11:59.919Z,9.50
2023-04-07T02:14:28.080Z,9.27
2023-04-07T02:16:56.323Z,9.98
2023-04-07T02:19:23.652Z,8.77
2023-04-07T02:21:52.401Z,9.85
2023-04-07T02:24:22.232Z,10.35
2023-04-07T02:26:49.212Z,9.05
2023-04-07T02:29:21.766Z,8.85
2023-04-07T02:31:48.627Z,8.27
2023-04-07T02:34:15.567Z,9.63
2023-04-07T02:36:42.420Z,9.15
2023-04-07T02:39:10.467Z,10.02
2023-04-07T02:41:37.357Z,9.52
2023-04-07T02:44:04.181Z,11.05
2023-04-07T02:46:31.196Z,8.98
2023-04-07T02:48:58.034Z,9.27
2023-04-07T02:51:24.941Z,10.63
2023-04-07T02:53:51.767Z,10.70
2023-04-07T02:56:18.637Z,10.88
2023-04-07T02:58:45.665Z,8.90
2023-04-07T03:01:12.515Z,9.90
2023-04-07T03:03:39.718Z,9.60
2023-04-07T03:06:06.650Z,8.98
2023-04-07T03:08:33.711Z,10.18
2023-04-07T03:11:00.564Z,9.35
2023-04-07T03:13:27.867Z,9.40
2023-04-07T03:15:54.775Z,9.85
2023-04-07T03:18:21.604Z,10.63
2023-04-07T03:20:49.433Z,10.10
2023-04-07T03:23:16.458Z,9.65
2023-04-07T03:25:43.458Z,8.98
2023-04-07T03:28:10.449Z,8.77
2023-04-07T03:30:37.628Z,10.25
2023-04-07T03:33:04.618Z,9.20
2023-04-07T03:35:31.758Z,9.68
2023-04-07T03:37:58.546Z,8.68
2023-04-07T03:40:25.290Z,8.63
2023-04-07T03:42:52.067Z,9.23
2023-04-07T03:45:18.886Z,9.00
2023-04-07T03:47:45.747Z,8.95
2023-04-07T03:50:12.596Z,9.18
2023-04-07T03:52:39.425Z,9.38
2023-04-07T03:55:06.861Z,9.98
2023-04-07T03:57:33.695Z,9.32
2023-04-07T04:00:00.550Z,10.05
2023-04-07T04:02:27.458Z,10.10
2023-04-07T04:04:54.387Z,9.43
2023-04-07T04:07:21.272Z,10.20
2023-04-07T04:09:48.153Z,9.45
2023-04-07T04:12:14.936Z,9.25
2023-04-07T04:14:41.728Z,9.15
2023-04-07T04:17:08.643Z,8.90
2023-04-07T04:19:35.733Z,9.75
2023-04-07T04:22:02.542Z,9.20
2023-04-07T04:24:29.363Z,9.35
2023-04-07T04:26:56.790Z,9.20
2023-04-07T04:29:23.745Z,9.63
2023-04-07T04:31:50.756Z,9.10
2023-04-07T04:34:17.787Z,8.70
2023-04-07T04:36:44.739Z,9.13
2023-04-07T04:39:11.649Z,9.73
2023-04-07T04:41:38.560Z,8.40
2023-04-07T04:44:05.410Z,9.55
2023-04-07T04:46:32.595Z,8.23
2023-04-07T04:48:59.509Z,9.10
2023-04-07T04:51:26.404Z,9.18
2023-04-07T04:53:53.404Z,8.13
2023-04-07T04:56:21.317Z,9.52
2023-04-07T04:58:48.162Z,8.82
2023-04-07T05:01:15.054Z,8.45
2023-04-07T05:03:42.284Z,9.13
2023-04-07T05:06:09.413Z,7.85
2023-04-07T05:08:36.198Z,10.07
2023-04-07T05:11:03.061Z,8.88
2023-04-07T05:13:31.074Z,8.90
2023-04-07T05:15:57.960Z,8.18
2023-04-07T05:18:24.925Z,9.73
2023-04-07T05:20:51.797Z,9.45
2023-04-07T05:23:18.640Z,9.00
2023-04-07T05:25:45.437Z,8.48
2023-04-07T05:28:12.263Z,8.52
2023-04-07T05:30:39.092Z,9.20
2023-04-07T05:33:06.170Z,9.88
2023-04-07T05:35:33.081Z,10.20
2023-04-07T05:37:59.888Z,8.43
2023-04-07T05:40:26.865Z,9.25
2023-04-07T05:42:53.685Z,9.48
2023-04-07T05:45:20.556Z,9.20
2023-04-07T05:47:50.560Z,9.30
2023-04-07T05:50:18.198Z,8.35
2023-04-07T05:52:45.270Z,9.63
2023-04-07T05:55:12.352Z,9.35
2023-04-07T05:57:39.174Z,10.07
2023-04-07T06:00:06.821Z,9.73
2023-04-07T06:02:33.804Z,9.07
2023-04-07T06:05:00.757Z,8.98
2023-04-07T06:07:27.583Z,9.18
2023-04-07T06:09:54.605Z,9.00
2023-04-07T06:12:21.621Z,9.70
2023-04-07T06:14:53.774Z,10.52
2023-04-07T06:17:20.750Z,10.57
2023-04-07T06:19:47.721Z,9.75
2023-04-07T06:22:14.620Z,9.18
2023-04-07T06:24:41.579Z,10.48
2023-04-07T06:27:08.706Z,9.43
2023-04-07T06:29:35.946Z,8.52
2023-04-07T06:32:02.851Z,9.68
2023-04-07T06:34:29.776Z,9.05
2023-04-07T06:36:58.085Z,9.38
2023-04-07T06:39:27.416Z,9.13
2023-04-07T06:41:54.223Z,9.35
2023-04-07T06:44:21.012Z,8.95
2023-04-07T06:46:51.514Z,9.02
2023-04-07T06:49:18.382Z,9.02
2023-04-07T06:51:45.334Z,8.77
2023-04-07T06:54:14.051Z,8.15
2023-04-07T06:56:41.641Z,9.73
2023-04-07T06:59:08.933Z,8.60
2023-04-07T07:01:36.000Z,7.97
2023-04-07T07:04:03.271Z,8.32
2023-04-07T07:06:31.660Z,8.15
2023-04-07T07:08:58.786Z,9.27
2023-04-07T07:11:25.875Z,9.57
2023-04-07T07:13:52.753Z,8.02
2023-04-07T07:16:19.609Z,9.82
2023-04-07T07:18:46.496Z,8.43
2023-04-07T07:21:13.826Z,8.30
2023-04-07T07:23:40.665Z,8.07
2023-04-07T07:26:07.524Z,8.65
2023-04-07T07:28:34.492Z,8.38
2023-04-07T07:31:01.378Z,8.90
2023-04-07T07:33:28.254Z,8.15
2023-04-07T07:35:55.118Z,9.13
2023-04-07T07:38:21.992Z,8.95
2023-04-07T07:40:48.854Z,9.05
2023-04-07T07:43:15.804Z,8.80
2023-04-07T07:45:43.062Z,7.30
2023-04-07T07:48:09.889Z,9.82
2023-04-07T07:50:36.733Z,9.23
2023-04-07T07:53:03.628Z,8.93
2023-04-07T07:55:30.522Z,8.68
2023-04-07T07:57:57.602Z,8.55
2023-04-07T08:00:24.464Z,8.60
2023-04-07T08:02:51.423Z,8.60
2023-04-07T08:05:18.549Z,8.52
2023-04-07T08:07:46.903Z,8.90
2023-04-07T08:10:15.180Z,8.52
2023-04-07T08:12:42.032Z,8.27
2023-04-07T08:15:10.359Z,7.97
2023-04-07T08:17:37.946Z,8.02
2023-04-07T08:20:06.070Z,6.78
2023-04-07T08:22:33.054Z,7.18
2023-04-07T08:25:00.148Z,5.75
2023-04-07T08:27:27.029Z,5.63
2023-04-07T08:30:02.045Z,5.72
2023-04-07T08:32:40.892Z,4.80
2023-04-07T08:35:08.422Z,5.40
2023-04-07T08:37:36.816Z,5.75
2023-04-07T08:40:04.344Z,5.38
2023-04-07T08:42:33.445Z,4.93
2023-04-07T08:45:07.399Z,5.43
2023-04-07T08:47:35.912Z,5.15
2023-04-07T08:50:11.104Z,5.40
2023-04-07T08:52:43.634Z,5.18
2023-04-07T08:55:11.454Z,5.22
2023-04-07T08:57:39.067Z,5.00
2023-04-07T09:00:06.601Z,5.00
2023-04-07T09:02:38.414Z,4.28
2023-04-07T09:05:08.046Z,5.03
2023-04-07T09:07:40.380Z,4.57
2023-04-07T09:10:08.204Z,5.32
2023-04-07T09:12:35.471Z,4.55
2023-04-07T09:15:02.422Z,4.30
2023-04-07T09:17:30.019Z,4.57
2023-04-07T09:20:01.035Z,4.88
2023-04-07T09:22:50.785Z,4.70
2023-04-07T09:25:27.358Z,4.60
2023-04-07T09:28:01.813Z,4.03
2023-04-07T09:32:57.208Z,4.38
2023-04-07T09:35:24.742Z,3.67
2023-04-07T09:38:08.686Z,3.85
2023-04-07T09:40:37.355Z,3.67
2023-04-07T09:43:05.663Z,3.65
2023-04-07T09:45:36.147Z,3.80
2023-04-07T09:48:20.128Z,3.45
2023-04-07T09:50:51.029Z,3.08
2023-04-07T09:53:19.268Z,3.15
2023-04-07T09:55:46.421Z,3.85
2023-04-07T09:58:16.978Z,2.92
2023-04-07T10:00:44.338Z,3.83
2023-04-07T10:03:12.196Z,3.08
2023-04-07T10:05:39.445Z,3.55
2023-04-07T10:08:07.076Z,3.53
2023-04-07T10:10:35.444Z,4.80
2023-04-07T10:13:06.155Z,3.92
2023-04-07T10:15:33.726Z,3.72
2023-04-07T10:18:02.931Z,3.22
2023-04-07T10:20:30.503Z,3.28
2023-04-07T10:23:04.389Z,4.00
2023-04-07T10:25:31.850Z,3.65
2023-04-07T10:28:08.094Z,4.03
2023-04-07T10:30:36.360Z,3.63
2023-04-07T10:33:03.657Z,3.45
2023-04-07T10:36:04.703Z,3.75
2023-04-07T10:38:31.760Z,3.47
2023-04-07T10:40:58.617Z,4.15
2023-04-07T10:43:42.289Z,2.65
2023-04-07T10:46:09.243Z,3.50
2023-04-07T10:48:36.427Z,3.72
2023-04-07T10:51:06.186Z,3.15
2023-04-07T10:53:34.189Z,3.53
2023-04-07T10:56:01.279Z,3.03
2023-04-07T10:58:31.991Z,3.58
2023-04-07T11:01:04.857Z,3.80
2023-04-07T11:03:34.832Z,4.53
2023-04-07T11:06:13.445Z,4.65
2023-04-07T11:08:49.534Z,3.80
2023-04-07T11:11:20.914Z,4.35
2023-04-07T11:13:49.354Z,4.03
2023-04-07T11:16:19.458Z,4.20
2023-04-07T11:18:48.279Z,4.10
2023-04-07T11:21:19.696Z,3.65
2023-04-07T11:23:48.002Z,3.45
2023-04-07T11:26:16.187Z,4.38
2023-04-07T11:28:54.207Z,4.32
2023-04-07T11:31:31.886Z,4.15
2023-04-07T11:34:04.886Z,3.75
2023-04-07T11:36:38.731Z,3.50
2023-04-07T11:39:05.948Z,3.25
2023-04-07T11:41:33.869Z,3.70
2023-04-07T11:44:11.413Z,2.88
2023-04-07T11:46:54.782Z,3.28
2023-04-07T11:49:22.976Z,2.92
2023-04-07T11:52:07.311Z,2.85
2023-04-07T11:54:47.282Z,2.88
2023-04-07T11:57:23.618Z,2.75
2023-04-07T11:59:50.999Z,2.55
2023-04-07T12:02:37.079Z,2.63
2023-04-07T12:05:05.350Z,2.50
2023-04-07T12:07:33.311Z,2.95
2023-04-07T12:10:19.405Z,3.30
2023-04-07T12:12:47.004Z,2.47
2023-04-07T12:15:14.695Z,3.00
2023-04-07T12:17:47.526Z,3.00
2023-04-07T12:20:15.572Z,2.78
2023-04-07T12:22:42.533Z,3.05
2023-04-07T12:25:09.840Z,2.95
2023-04-07T12:27:43.392Z,2.85
2023-04-07T12:30:13.021Z,2.33
2023-04-07T12:32:41.281Z,2.50
2023-04-07T12:35:08.307Z,3.10
2023-04-07T12:37:35.398Z,2.95
2023-04-07T12:40:02.206Z,3.22
2023-04-07T12:42:29.034Z,2.72
2023-04-07T12:44:56.658Z,2.72
2023-04-07T12:47:23.539Z,2.60
2023-04-07T12:49:50.562Z,3.15
2023-04-07T12:52:17.527Z,3.10
2023-04-07T12:54:45.414Z,3.17
2023-04-07T12:57:12.442Z,3.05
2023-04-07T12:59:39.479Z,2.47
2023-04-07T13:02:06.917Z,3.00
2023-04-07T13:04:35.261Z,2.97
2023-04-07T13:07:03.352Z,3.20
2023-04-07T13:09:30.374Z,2.83
2023-04-07T13:11:57.999Z,3.15
2023-04-07T13:14:25.066Z,2.80
2023-04-07T13:16:52.106Z,2.78
2023-04-07T13:19:19.244Z,2.53
2023-04-07T13:21:47.801Z,2.75
2023-04-07T13:24:15.868Z,3.00
2023-04-07T13:26:42.844Z,2.83
2023-04-07T13:29:09.746Z,2.80
2023-04-07T13:31:36.646Z,3.17
2023-04-07T13:34:03.806Z,2.65
2023-04-07T13:36:31.180Z,2.22
2023-04-07T13:38:58.097Z,2.28
2023-04-07T13:41:25.049Z,2.88
2023-04-07T13:43:52.181Z,2.70
2023-04-07T13:48:49.558Z,2.72
2023-04-07T13:51:17.154Z,2.80
2023-04-07T13:53:44.080Z,3.10
2023-04-07T13:56:11.060Z,2.33
2023-04-07T13:58:37.855Z,2.50
2023-04-07T14:01:04.745Z,3.25
2023-04-07T14:03:31.892Z,2.13
2023-04-07T14:06:01.123Z,2.70
2023-04-07T14:08:28.656Z,2.60
2023-04-07T14:10:55.712Z,3.40
2023-04-07T14:13:23.053Z,2.83
2023-04-07T14:15:50.720Z,2.40
2023-04-07T14:18:17.781Z,2.63
2023-04-07T14:20:44.849Z,2.78
2023-04-07T14:23:12.228Z,2.67
2023-04-07T14:25:39.329Z,2.45
2023-04-07T14:28:06.393Z,2.92
2023-04-07T14:30:38.708Z,3.78
2023-04-07T14:33:06.313Z,3.53
2023-04-07T14:35:37.114Z,3.92
2023-04-07T14:38:03.988Z,3.92
2023-04-07T14:40:33.577Z,4.20
2023-04-07T14:45:30.829Z,3.55
2023-04-07T14:47:57.859Z,3.42
2023-04-07T14:50:24.937Z,2.58
2023-04-07T14:52:52.012Z,3.22
2023-04-07T14:55:18.968Z,3.53
2023-04-07T14:57:46.087Z,3.08
2023-04-07T15:00:16.024Z,3.72
2023-04-07T15:02:44.436Z,4.18
2023-04-07T15:05:11.574Z,3.30
2023-04-07T15:07:38.590Z,3.03
2023-04-07T15:10:06.101Z,4.00
2023-04-07T15:12:33.504Z,3.72
2023-04-07T15:15:00.556Z,4.43
2023-04-07T15:17:36.662Z,3.95
2023-04-07T15:20:12.131Z,3.95
2023-04-07T15:22:38.954Z,3.90
2023-04-07T15:25:06.322Z,3.47
2023-04-07T15:27:33.115Z,4.20
2023-04-07T15:30:00.632Z,3.80
2023-04-07T15:32:27.636Z,4.05
2023-04-07T15:34:56.749Z,4.10
2023-04-07T15:37:24.579Z,4.43
2023-04-07T15:39:51.434Z,3.72
2023-04-07T15:42:18.280Z,5.25
2023-04-07T15:44:45.336Z,4.15
2023-04-07T15:47:12.158Z,2.83
2023-04-07T15:49:39.157Z,3.67
2023-04-07T15:52:06.532Z,2.85
2023-04-07T15:54:33.609Z,2.90
2023-04-07T15:57:01.120Z,3.00
2023-04-07T15:59:30.734Z,3.10
2023-04-07T16:01:58.082Z,3.78
2023-04-07T16:04:24.973Z,3.22
2023-04-07T16:06:52.003Z,3.50
2023-04-07T16:09:19.228Z,3.85
2023-04-07T16:11:46.098Z,3.95
2023-04-07T16:14:12.951Z,4.43
2023-04-07T16:16:41.440Z,3.60
2023-04-07T16:19:08.498Z,3.45
2023-04-07T16:21:35.577Z,3.60
2023-04-07T16:24:02.801Z,3.30
2023-04-07T16:26:30.897Z,3.88
2023-04-07T16:29:00.001Z,4.20
2023-04-07T16:31:27.015Z,3.92
2023-04-07T16:33:54.084Z,3.78
2023-04-07T16:36:21.299Z,3.95
2023-04-07T16:38:49.723Z,3.80
2023-04-07T16:41:16.831Z,3.92
2023-04-07T16:43:43.926Z,3.83
2023-04-07T16:46:10.947Z,4.20
2023-04-07T16:48:37.765Z,4.32
2023-04-07T16:51:04.840Z,4.15
2023-04-07T16:53:31.848Z,3.50
2023-04-07T16:55:58.918Z,3.78
2023-04-07T16:58:25.986Z,3.22
2023-04-07T17:00:53.081Z,3.65
2023-04-07T17:03:20.119Z,3.33
2023-04-07T17:05:48.286Z,3.33
2023-04-07T17:08:15.526Z,3.03
2023-04-07T17:10:44.314Z,3.78
2023-04-07T17:13:11.304Z,4.60
2023-04-07T17:15:38.481Z,3.42
2023-04-07T17:18:08.136Z,3.78
2023-04-07T17:20:38.522Z,3.20
2023-04-07T17:23:05.593Z,3.38
2023-04-07T17:25:32.458Z,3.95
2023-04-07T17:27:59.279Z,3.63
2023-04-07T17:30:26.164Z,3.50
2023-04-07T17:32:53.704Z,3.75
2023-04-07T17:35:21.287Z,4.65
2023-04-07T17:37:48.605Z,4.35
2023-04-07T17:40:15.538Z,4.40
2023-04-07T17:42:42.994Z,3.75
2023-04-07T17:45:10.885Z,3.00
2023-04-07T17:47:37.917Z,3.60
2023-04-07T17:50:05.270Z,4.03
2023-04-07T17:52:32.269Z,3.55
2023-04-07T17:54:59.401Z,3.65
2023-04-07T17:57:26.269Z,2.92
2023-04-07T17:59:53.420Z,4.10
2023-04-07T18:02:20.555Z,3.50
2023-04-07T18:04:47.679Z,3.75
2023-04-07T18:07:17.785Z,4.07
2023-04-07T18:09:44.951Z,3.35
2023-04-07T18:12:12.279Z,3.70
2023-04-07T18:14:39.976Z,3.65
2023-04-07T18:17:06.864Z,3.65
2023-04-07T18:19:34.025Z,3.72
2023-04-07T18:22:04.080Z,4.50
2023-04-07T18:24:31.258Z,3.33
2023-04-07T18:26:58.227Z,3.17
2023-04-07T18:29:25.002Z,4.13
2023-04-07T18:31:51.892Z,4.70
2023-04-07T18:34:18.913Z,4.30
2023-04-07T18:36:47.501Z,3.92
2023-04-07T18:39:14.619Z,3.60
2023-04-07T18:41:44.774Z,3.35
2023-04-07T18:44:12.505Z,3.70
2023-04-07T18:46:39.659Z,3.30
2023-04-07T18:49:06.619Z,3.97
2023-04-07T18:51:33.588Z,3.58
2023-04-07T18:54:01.638Z,3.50
2023-04-07T18:56:29.941Z,3.38
2023-04-07T18:58:57.089Z,4.00
2023-04-07T19:01:24.074Z,3.95
2023-04-07T19:03:53.761Z,4.50
2023-04-07T19:06:22.645Z,4.65
2023-04-07T19:08:52.233Z,4.32
2023-04-07T19:11:19.117Z,4.07
2023-04-07T19:13:46.436Z,4.28
2023-04-07T19:16:15.547Z,4.82
2023-04-07T19:18:42.392Z,4.38
2023-04-07T19:21:09.277Z,4.40
2023-04-07T19:23:36.157Z,4.57
2023-04-07T19:26:06.615Z,4.80
2023-04-07T19:28:34.593Z,5.30
2023-04-07T19:31:01.527Z,4.57
2023-04-07T19:33:28.385Z,5.13
2023-04-07T19:35:56.278Z,5.45
2023-04-07T19:38:23.138Z,5.35
2023-04-07T19:40:51.349Z,4.95
2023-04-07T19:43:18.205Z,4.57
2023-04-07T19:45:47.935Z,5.55
2023-04-07T19:48:15.463Z,4.90
2023-04-07T19:50:48.154Z,6.15
2023-04-07T19:53:18.635Z,5.53
2023-04-07T19:55:46.209Z,6.05
2023-04-07T19:58:13.419Z,5.20
2023-04-07T20:00:40.730Z,5.40
2023-04-07T20:03:07.740Z,5.20
2023-04-07T20:05:35.122Z,5.32
2023-04-07T20:08:02.000Z,4.70
2023-04-07T20:10:30.234Z,5.97
2023-04-07T20:12:57.102Z,5.03
2023-04-07T20:15:26.872Z,5.03
2023-04-07T20:17:53.845Z,4.97
2023-04-07T20:20:22.248Z,5.45
2023-04-07T20:22:49.226Z,4.95
2023-04-07T20:25:19.158Z,4.72
2023-04-07T20:27:49.072Z,4.95
2023-04-07T20:30:18.981Z,4.85
2023-04-07T20:32:47.001Z,4.32
2023-04-07T20:35:14.403Z,3.88
2023-04-07T20:37:42.065Z,4.40
2023-04-07T20:40:09.869Z,4.50
2023-04-07T20:42:36.988Z,4.68
2023-04-07T20:45:04.884Z,4.45
2023-04-07T20:47:32.292Z,4.30
2023-04-07T20:49:59.419Z,4.47
2023-04-07T20:52:27.360Z,3.85
2023-04-07T20:54:54.229Z,4.57
2023-04-07T20:57:21.116Z,5.35
2023-04-07T20:59:48.110Z,4.15
2023-04-07T21:02:15.124Z,4.55
2023-04-07T21:04:42.034Z,3.83
2023-04-07T21:07:08.918Z,4.93
2023-04-07T21:09:35.786Z,3.67
2023-04-07T21:12:03.572Z,3.95
2023-04-07T21:14:31.960Z,4.40
2023-04-07T21:17:02.151Z,5.20
2023-04-07T21:19:32.439Z,4.45
2023-04-07T21:22:00.472Z,4.75
2023-04-07T21:24:29.879Z,4.50
2023-04-07T21:26:56.763Z,5.25
2023-04-07T21:29:23.811Z,4.13
2023-04-07T21:31:50.816Z,4.47
2023-04-07T21:34:19.732Z,3.60
2023-04-07T21:36:46.570Z,3.47
2023-04-07T21:39:13.521Z,3.97
2023-04-07T21:41:40.369Z,3.78
2023-04-07T21:44:09.494Z,4.32
2023-04-07T21:46:40.948Z,4.57
2023-04-07T21:49:09.335Z,3.00
2023-04-07T21:51:37.584Z,3.38
2023-04-07T21:54:04.380Z,3.50
2023-04-07T21:56:31.369Z,3.33
2023-04-07T21:58:58.708Z,2.95
2023-04-07T22:01:25.710Z,3.10
2023-04-07T22:03:52.698Z,3.45
2023-04-07T22:06:19.589Z,3.50
2023-04-07T22:08:58.534Z,3.53
2023-04-07T22:11:28.282Z,3.40
2023-04-07T22:13:55.371Z,3.47
2023-04-07T22:16:22.283Z,4.18
2023-04-07T22:18:49.416Z,3.63
2023-04-07T22:21:17.005Z,3.45
2023-04-07T22:23:44.433Z,3.13
2023-04-07T22:26:11.330Z,3.20
2023-04-07T22:28:38.108Z,3.22
2023-04-07T22:31:05.266Z,2.97
2023-04-07T22:33:32.095Z,3.35
2023-04-07T22:35:58.918Z,3.13
2023-04-07T22:38:25.944Z,3.88
2023-04-07T22:40:52.804Z,3.08
2023-04-07T22:43:19.689Z,2.92
2023-04-07T22:45:46.591Z,2.67
2023-04-07T22:48:13.690Z,2.58
2023-04-07T22:50:40.680Z,2.75
2023-04-07T22:53:08.396Z,2.92
2023-04-07T22:55:36.222Z,3.45
2023-04-07T22:58:03.042Z,3.10
2023-04-07T23:00:29.934Z,3.17
2023-04-07T23:02:56.909Z,3.70
2023-04-07T23:05:23.980Z,3.20
2023-04-07T23:07:52.071Z,3.47
2023-04-07T23:10:18.958Z,3.42
2023-04-07T23:12:46.397Z,3.28
2023-04-07T23:15:13.361Z,3.33
2023-04-07T23:17:40.497Z,3.10
2023-04-07T23:20:08.134Z,2.85
2023-04-07T23:22:35.133Z,3.47
2023-04-07T23:25:03.118Z,3.50
2023-04-07T23:27:30.063Z,3.65
2023-04-07T23:29:58.351Z,3.65
2023-04-07T23:32:25.172Z,3.15
2023-04-07T23:34:52.087Z,3.10
2023-04-07T23:37:18.907Z,3.33
2023-04-07T23:39:45.920Z,2.75
2023-04-07T23:42:14.851Z,2.78
2023-04-07T23:44:41.645Z,3.15
2023-04-07T23:47:08.480Z,3.38
2023-04-07T23:49:35.318Z,3.25
2023-04-07T23:52:02.612Z,3.45
2023-04-07T23:54:29.396Z,3.33
2023-04-07T23:56:57.105Z,2.80
2023-04-07T23:59:24.047Z,3.25
